sensor_id;sensor_type;location;lat;lon;timestamp;P1;durP1;ratioP1;P2;durP2;ratioP2
55813;SDS011;65494;42.818;0.404;2023-12-04T00:35:46;1.45;;;0.90;;
55813;SDS011;65494;42.818;0.404;2023-12-04T00:38:19;2.05;;;1.10;;
55813;SDS011;65494;42.818;0.404;2023-12-04T00:40:46;2.33;;;1.20;;
55813;SDS011;65494;42.818;0.404;2023-12-04T00:43:35;4.97;;;2.13;;
55813;SDS011;65494;42.818;0.404;2023-12-04T00:46:04;3.63;;;1.35;;
55813;SDS011;65494;42.818;0.404;2023-12-04T00:48:30;1.67;;;0.70;;
55813;SDS011;65494;42.818;0.404;2023-12-04T00:50:57;3.72;;;1.48;;
55813;SDS011;65494;42.818;0.404;2023-12-04T00:53:53;2.00;;;1.10;;
55813;SDS011;65494;42.818;0.404;2023-12-04T00:56:23;0.85;;;0.52;;
55813;SDS011;65494;42.818;0.404;2023-12-04T00:58:54;1.10;;;0.55;;
55813;SDS011;65494;42.818;0.404;2023-12-04T01:01:29;1.85;;;0.82;;
55813;SDS011;65494;42.818;0.404;2023-12-04T01:04:01;1.38;;;0.90;;
55813;SDS011;65494;42.818;0.404;2023-12-04T01:06:47;0.68;;;0.68;;
55813;SDS011;65494;42.818;0.404;2023-12-04T01:09:16;1.23;;;0.75;;
55813;SDS011;65494;42.818;0.404;2023-12-04T01:12:01;2.33;;;0.85;;
55813;SDS011;65494;42.818;0.404;2023-12-04T01:14:28;2.15;;;0.65;;
55813;SDS011;65494;42.818;0.404;2023-12-04T01:16:54;1.42;;;0.50;;
55813;SDS011;65494;42.818;0.404;2023-12-04T01:19:20;1.42;;;0.50;;
55813;SDS011;65494;42.818;0.404;2023-12-04T01:21:46;1.90;;;0.70;;
55813;SDS011;65494;42.818;0.404;2023-12-04T01:24:14;2.10;;;0.70;;
55813;SDS011;65494;42.818;0.404;2023-12-04T01:26:41;1.10;;;0.63;;
55813;SDS011;65494;42.818;0.404;2023-12-04T01:29:07;0.98;;;0.60;;
55813;SDS011;65494;42.818;0.404;2023-12-04T01:31:33;1.08;;;0.60;;
55813;SDS011;65494;42.818;0.404;2023-12-04T01:34:00;1.88;;;0.70;;
55813;SDS011;65494;42.818;0.404;2023-12-04T01:36:28;0.57;;;0.45;;
55813;SDS011;65494;42.818;0.404;2023-12-04T01:38:54;0.32;;;0.32;;
55813;SDS011;65494;42.818;0.404;2023-12-04T01:41:26;0.40;;;0.40;;
55813;SDS011;65494;42.818;0.404;2023-12-04T01:44:04;0.52;;;0.30;;
55813;SDS011;65494;42.818;0.404;2023-12-04T01:46:38;0.35;;;0.35;;
55813;SDS011;65494;42.818;0.404;2023-12-04T01:49:11;0.38;;;0.30;;
55813;SDS011;65494;42.818;0.404;2023-12-04T01:51:39;0.77;;;0.30;;
55813;SDS011;65494;42.818;0.404;2023-12-04T01:54:26;1.58;;;0.43;;
55813;SDS011;65494;42.818;0.404;2023-12-04T01:56:57;0.47;;;0.40;;
55813;SDS011;65494;42.818;0.404;2023-12-04T01:59:25;0.45;;;0.45;;
55813;SDS011;65494;42.818;0.404;2023-12-04T02:01:51;2.22;;;0.40;;
55813;SDS011;65494;42.818;0.404;2023-12-04T02:41:17;0.88;;;0.50;;
55813;SDS011;65494;42.818;0.404;2023-12-04T02:43:51;0.38;;;0.30;;
55813;SDS011;65494;42.818;0.404;2023-12-04T02:46:20;1.10;;;0.77;;
55813;SDS011;65494;42.818;0.404;2023-12-04T02:48:46;1.77;;;0.35;;
55813;SDS011;65494;42.818;0.404;2023-12-04T02:51:16;0.30;;;0.30;;
55813;SDS011;65494;42.818;0.404;2023-12-04T02:56:31;0.75;;;0.28;;
55813;SDS011;65494;42.818;0.404;2023-12-04T02:59:09;0.20;;;0.20;;
55813;SDS011;65494;42.818;0.404;2023-12-04T03:02:00;0.30;;;0.30;;
55813;SDS011;65494;42.818;0.404;2023-12-04T03:07:50;0.20;;;0.20;;
55813;SDS011;65494;42.818;0.404;2023-12-04T03:10:16;0.30;;;0.30;;
55813;SDS011;65494;42.818;0.404;2023-12-04T03:12:44;0.30;;;0.30;;
55813;SDS011;65494;42.818;0.404;2023-12-04T03:15:15;0.32;;;0.30;;
55813;SDS011;65494;42.818;0.404;2023-12-04T03:18:10;0.47;;;0.30;;
55813;SDS011;65494;42.818;0.404;2023-12-04T03:20:36;1.02;;;0.73;;
55813;SDS011;65494;42.818;0.404;2023-12-04T03:23:03;0.20;;;0.20;;
55813;SDS011;65494;42.818;0.404;2023-12-04T03:25:39;0.20;;;0.20;;
55813;SDS011;65494;42.818;0.404;2023-12-04T03:34:11;0.20;;;0.20;;
55813;SDS011;65494;42.818;0.404;2023-12-04T03:36:37;0.20;;;0.20;;
55813;SDS011;65494;42.818;0.404;2023-12-04T03:39:03;0.45;;;0.35;;
55813;SDS011;65494;42.818;0.404;2023-12-04T03:44:05;0.30;;;0.30;;
55813;SDS011;65494;42.818;0.404;2023-12-04T03:46:57;0.20;;;0.20;;
55813;SDS011;65494;42.818;0.404;2023-12-04T03:49:47;0.40;;;0.30;;
55813;SDS011;65494;42.818;0.404;2023-12-04T03:53:08;0.30;;;0.30;;
55813;SDS011;65494;42.818;0.404;2023-12-04T03:56:10;0.40;;;0.40;;
55813;SDS011;65494;42.818;0.404;2023-12-04T03:58:37;2.05;;;0.98;;
55813;SDS011;65494;42.818;0.404;2023-12-04T04:01:28;2.83;;;1.15;;
55813;SDS011;65494;42.818;0.404;2023-12-04T04:04:32;4.75;;;2.10;;
55813;SDS011;65494;42.818;0.404;2023-12-04T04:07:03;4.60;;;0.47;;
55813;SDS011;65494;42.818;0.404;2023-12-04T04:12:37;1.83;;;1.15;;
55813;SDS011;65494;42.818;0.404;2023-12-04T04:15:28;1.92;;;0.50;;
55813;SDS011;65494;42.818;0.404;2023-12-04T04:18:14;0.68;;;0.50;;
55813;SDS011;65494;42.818;0.404;2023-12-04T04:24:00;0.32;;;0.32;;
55813;SDS011;65494;42.818;0.404;2023-12-04T04:30:12;1.83;;;1.00;;
55813;SDS011;65494;42.818;0.404;2023-12-04T04:32:59;0.20;;;0.20;;
55813;SDS011;65494;42.818;0.404;2023-12-04T04:35:50;0.40;;;0.40;;
55813;SDS011;65494;42.818;0.404;2023-12-04T04:38:46;2.38;;;0.40;;
55813;SDS011;65494;42.818;0.404;2023-12-04T04:41:44;0.80;;;0.60;;
55813;SDS011;65494;42.818;0.404;2023-12-04T04:47:51;0.93;;;0.60;;
55813;SDS011;65494;42.818;0.404;2023-12-04T04:50:34;0.65;;;0.32;;
55813;SDS011;65494;42.818;0.404;2023-12-04T05:02:30;0.20;;;0.20;;
55813;SDS011;65494;42.818;0.404;2023-12-04T05:04:57;1.45;;;0.93;;
55813;SDS011;65494;42.818;0.404;2023-12-04T05:07:43;0.70;;;0.47;;
55813;SDS011;65494;42.818;0.404;2023-12-04T05:10:25;0.57;;;0.30;;
55813;SDS011;65494;42.818;0.404;2023-12-04T05:12:57;3.60;;;0.50;;
55813;SDS011;65494;42.818;0.404;2023-12-04T05:15:27;1.85;;;0.40;;
55813;SDS011;65494;42.818;0.404;2023-12-04T05:17:57;0.95;;;0.70;;
55813;SDS011;65494;42.818;0.404;2023-12-04T05:20:35;0.35;;;0.35;;
55813;SDS011;65494;42.818;0.404;2023-12-04T05:23:05;0.28;;;0.28;;
55813;SDS011;65494;42.818;0.404;2023-12-04T05:25:34;2.15;;;0.80;;
55813;SDS011;65494;42.818;0.404;2023-12-04T05:28:00;0.30;;;0.30;;
55813;SDS011;65494;42.818;0.404;2023-12-04T05:30:32;1.02;;;0.60;;
55813;SDS011;65494;42.818;0.404;2023-12-04T05:33:21;0.52;;;0.40;;
55813;SDS011;65494;42.818;0.404;2023-12-04T05:39:11;1.50;;;0.77;;
55813;SDS011;65494;42.818;0.404;2023-12-04T05:45:24;0.60;;;0.40;;
55813;SDS011;65494;42.818;0.404;2023-12-04T05:50:42;0.28;;;0.28;;
55813;SDS011;65494;42.818;0.404;2023-12-04T05:53:26;0.47;;;0.38;;
55813;SDS011;65494;42.818;0.404;2023-12-04T06:04:12;0.65;;;0.50;;
55813;SDS011;65494;42.818;0.404;2023-12-04T06:07:02;0.60;;;0.60;;
55813;SDS011;65494;42.818;0.404;2023-12-04T06:09:28;0.30;;;0.30;;
55813;SDS011;65494;42.818;0.404;2023-12-04T06:12:15;11.38;;;2.53;;
55813;SDS011;65494;42.818;0.404;2023-12-04T06:15:03;7.75;;;3.38;;
55813;SDS011;65494;42.818;0.404;2023-12-04T06:17:32;2.42;;;0.90;;
55813;SDS011;65494;42.818;0.404;2023-12-04T06:22:45;2.88;;;1.15;;
55813;SDS011;65494;42.818;0.404;2023-12-04T06:27:54;5.85;;;1.65;;
55813;SDS011;65494;42.818;0.404;2023-12-04T06:30:41;3.95;;;1.38;;
55813;SDS011;65494;42.818;0.404;2023-12-04T06:36:11;3.85;;;2.00;;
55813;SDS011;65494;42.818;0.404;2023-12-04T06:38:49;18.77;;;7.65;;
55813;SDS011;65494;42.818;0.404;2023-12-04T08:38:10;6.75;;;2.15;;
55813;SDS011;65494;42.818;0.404;2023-12-04T08:41:07;3.90;;;1.63;;
55813;SDS011;65494;42.818;0.404;2023-12-04T08:44:21;5.38;;;2.38;;
55813;SDS011;65494;42.818;0.404;2023-12-04T08:46:50;6.70;;;2.80;;
55813;SDS011;65494;42.818;0.404;2023-12-04T08:55:39;3.05;;;1.38;;
55813;SDS011;65494;42.818;0.404;2023-12-04T09:01:09;5.05;;;2.30;;
55813;SDS011;65494;42.818;0.404;2023-12-04T09:03:37;4.10;;;1.67;;
55813;SDS011;65494;42.818;0.404;2023-12-04T09:06:07;4.03;;;1.60;;
55813;SDS011;65494;42.818;0.404;2023-12-04T09:09:19;2.88;;;1.30;;
55813;SDS011;65494;42.818;0.404;2023-12-04T09:11:47;2.60;;;1.40;;
55813;SDS011;65494;42.818;0.404;2023-12-04T09:18:00;1.80;;;0.50;;
55813;SDS011;65494;42.818;0.404;2023-12-04T09:20:35;0.50;;;0.40;;
55813;SDS011;65494;42.818;0.404;2023-12-04T09:23:48;0.28;;;0.28;;
55813;SDS011;65494;42.818;0.404;2023-12-04T09:29:03;0.63;;;0.30;;
55813;SDS011;65494;42.818;0.404;2023-12-04T09:31:29;0.20;;;0.20;;
55813;SDS011;65494;42.818;0.404;2023-12-04T09:33:55;0.40;;;0.30;;
55813;SDS011;65494;42.818;0.404;2023-12-04T09:36:21;0.20;;;0.20;;
55813;SDS011;65494;42.818;0.404;2023-12-04T09:38:47;0.15;;;0.15;;
55813;SDS011;65494;42.818;0.404;2023-12-04T09:41:14;0.40;;;0.30;;
55813;SDS011;65494;42.818;0.404;2023-12-04T09:43:41;0.57;;;0.40;;
55813;SDS011;65494;42.818;0.404;2023-12-04T09:46:07;1.15;;;0.88;;
55813;SDS011;65494;42.818;0.404;2023-12-04T09:48:34;1.98;;;0.47;;
55813;SDS011;65494;42.818;0.404;2023-12-04T09:51:01;0.20;;;0.20;;
55813;SDS011;65494;42.818;0.404;2023-12-04T09:53:31;0.30;;;0.30;;
55813;SDS011;65494;42.818;0.404;2023-12-04T09:55:58;0.35;;;0.30;;
55813;SDS011;65494;42.818;0.404;2023-12-04T09:58:25;0.20;;;0.20;;
55813;SDS011;65494;42.818;0.404;2023-12-04T10:00:53;0.85;;;0.50;;
55813;SDS011;65494;42.818;0.404;2023-12-04T10:03:20;0.75;;;0.50;;
55813;SDS011;65494;42.818;0.404;2023-12-04T10:05:46;0.25;;;0.15;;
55813;SDS011;65494;42.818;0.404;2023-12-04T10:08:12;0.82;;;0.25;;
55813;SDS011;65494;42.818;0.404;2023-12-04T10:10:39;1.02;;;0.30;;
55813;SDS011;65494;42.818;0.404;2023-12-04T10:13:05;0.98;;;0.20;;
55813;SDS011;65494;42.818;0.404;2023-12-04T10:15:31;0.40;;;0.10;;
55813;SDS011;65494;42.818;0.404;2023-12-04T10:17:58;0.38;;;0.20;;
55813;SDS011;65494;42.818;0.404;2023-12-04T10:20:24;0.22;;;0.10;;
55813;SDS011;65494;42.818;0.404;2023-12-04T10:25:19;0.30;;;0.20;;
55813;SDS011;65494;42.818;0.404;2023-12-04T10:27:45;0.10;;;0.10;;
55813;SDS011;65494;42.818;0.404;2023-12-04T10:30:22;0.25;;;0.25;;
55813;SDS011;65494;42.818;0.404;2023-12-04T10:32:48;0.10;;;0.10;;
55813;SDS011;65494;42.818;0.404;2023-12-04T10:35:14;0.25;;;0.10;;
55813;SDS011;65494;42.818;0.404;2023-12-04T10:37:42;0.20;;;0.10;;
55813;SDS011;65494;42.818;0.404;2023-12-04T10:40:09;0.17;;;0.17;;
55813;SDS011;65494;42.818;0.404;2023-12-04T10:42:37;0.30;;;0.20;;
55813;SDS011;65494;42.818;0.404;2023-12-04T10:45:03;0.30;;;0.20;;
55813;SDS011;65494;42.818;0.404;2023-12-04T10:47:31;0.50;;;0.10;;
55813;SDS011;65494;42.818;0.404;2023-12-04T10:49:59;0.77;;;0.10;;
55813;SDS011;65494;42.818;0.404;2023-12-04T10:52:27;0.60;;;0.20;;
55813;SDS011;65494;42.818;0.404;2023-12-04T10:54:54;0.75;;;0.20;;
55813;SDS011;65494;42.818;0.404;2023-12-04T10:57:26;0.20;;;0.20;;
55813;SDS011;65494;42.818;0.404;2023-12-04T10:59:57;0.05;;;0.05;;
55813;SDS011;65494;42.818;0.404;2023-12-04T11:02:25;0.17;;;0.10;;
55813;SDS011;65494;42.818;0.404;2023-12-04T11:04:54;0.10;;;0.10;;
55813;SDS011;65494;42.818;0.404;2023-12-04T11:07:24;0.30;;;0.20;;
55813;SDS011;65494;42.818;0.404;2023-12-04T11:09:58;0.40;;;0.10;;
55813;SDS011;65494;42.818;0.404;2023-12-04T11:12:33;0.20;;;0.20;;
55813;SDS011;65494;42.818;0.404;2023-12-04T11:15:08;1.52;;;0.40;;
55813;SDS011;65494;42.818;0.404;2023-12-04T11:17:39;17.17;;;0.52;;
55813;SDS011;65494;42.818;0.404;2023-12-04T11:20:11;0.75;;;0.20;;
55813;SDS011;65494;42.818;0.404;2023-12-04T11:22:45;0.28;;;0.20;;
55813;SDS011;65494;42.818;0.404;2023-12-04T11:25:32;0.40;;;0.28;;
55813;SDS011;65494;42.818;0.404;2023-12-04T11:28:26;0.63;;;0.20;;
55813;SDS011;65494;42.818;0.404;2023-12-04T11:31:11;0.45;;;0.20;;
55813;SDS011;65494;42.818;0.404;2023-12-04T11:33:37;0.10;;;0.10;;
55813;SDS011;65494;42.818;0.404;2023-12-04T11:36:13;0.20;;;0.20;;
55813;SDS011;65494;42.818;0.404;2023-12-04T11:38:46;0.10;;;0.10;;
55813;SDS011;65494;42.818;0.404;2023-12-04T11:41:16;0.10;;;0.10;;
55813;SDS011;65494;42.818;0.404;2023-12-04T11:43:42;0.10;;;0.10;;
55813;SDS011;65494;42.818;0.404;2023-12-04T11:46:09;0.22;;;0.22;;
55813;SDS011;65494;42.818;0.404;2023-12-04T11:48:38;0.22;;;0.20;;
55813;SDS011;65494;42.818;0.404;2023-12-04T11:51:07;0.25;;;0.20;;
55813;SDS011;65494;42.818;0.404;2023-12-04T11:53:37;0.40;;;0.30;;
55813;SDS011;65494;42.818;0.404;2023-12-04T11:56:08;0.30;;;0.30;;
55813;SDS011;65494;42.818;0.404;2023-12-04T11:58:41;0.47;;;0.20;;
55813;SDS011;65494;42.818;0.404;2023-12-04T12:01:07;0.32;;;0.30;;
55813;SDS011;65494;42.818;0.404;2023-12-04T12:03:33;0.20;;;0.20;;
55813;SDS011;65494;42.818;0.404;2023-12-04T12:05:59;0.20;;;0.20;;
55813;SDS011;65494;42.818;0.404;2023-12-04T12:08:25;0.17;;;0.17;;
55813;SDS011;65494;42.818;0.404;2023-12-04T12:11:02;0.55;;;0.28;;
55813;SDS011;65494;42.818;0.404;2023-12-04T12:13:28;0.20;;;0.20;;
55813;SDS011;65494;42.818;0.404;2023-12-04T12:15:54;0.82;;;0.40;;
55813;SDS011;65494;42.818;0.404;2023-12-04T12:18:23;0.32;;;0.30;;
55813;SDS011;65494;42.818;0.404;2023-12-04T12:20:49;0.32;;;0.28;;
55813;SDS011;65494;42.818;0.404;2023-12-04T12:23:15;0.43;;;0.32;;
55813;SDS011;65494;42.818;0.404;2023-12-04T12:25:41;0.10;;;0.10;;
55813;SDS011;65494;42.818;0.404;2023-12-04T12:28:08;0.75;;;0.40;;
55813;SDS011;65494;42.818;0.404;2023-12-04T12:30:34;0.20;;;0.20;;
55813;SDS011;65494;42.818;0.404;2023-12-04T12:33:00;0.30;;;0.30;;
55813;SDS011;65494;42.818;0.404;2023-12-04T12:35:26;0.30;;;0.30;;
55813;SDS011;65494;42.818;0.404;2023-12-04T12:37:52;0.43;;;0.40;;
55813;SDS011;65494;42.818;0.404;2023-12-04T12:40:19;1.95;;;0.60;;
55813;SDS011;65494;42.818;0.404;2023-12-04T12:46:34;0.43;;;0.40;;
55813;SDS011;65494;42.818;0.404;2023-12-04T12:52:37;0.43;;;0.40;;
55813;SDS011;65494;42.818;0.404;2023-12-04T12:58:27;0.25;;;0.25;;
55813;SDS011;65494;42.818;0.404;2023-12-04T13:01:22;0.20;;;0.20;;
55813;SDS011;65494;42.818;0.404;2023-12-04T13:07:23;0.30;;;0.30;;
55813;SDS011;65494;42.818;0.404;2023-12-04T13:16:49;0.68;;;0.47;;
55813;SDS011;65494;42.818;0.404;2023-12-04T13:19:44;0.30;;;0.30;;
55813;SDS011;65494;42.818;0.404;2023-12-04T13:25:46;1.13;;;0.40;;
55813;SDS011;65494;42.818;0.404;2023-12-04T13:32:09;1.58;;;0.50;;
55813;SDS011;65494;42.818;0.404;2023-12-04T13:35:20;1.77;;;0.47;;
55813;SDS011;65494;42.818;0.404;2023-12-04T13:38:17;0.20;;;0.20;;
55813;SDS011;65494;42.818;0.404;2023-12-04T13:41:26;0.95;;;0.40;;
55813;SDS011;65494;42.818;0.404;2023-12-04T13:44:10;0.30;;;0.30;;
55813;SDS011;65494;42.818;0.404;2023-12-04T13:46:47;0.30;;;0.30;;
55813;SDS011;65494;42.818;0.404;2023-12-04T13:49:14;0.30;;;0.30;;
55813;SDS011;65494;42.818;0.404;2023-12-04T13:51:44;0.20;;;0.20;;
55813;SDS011;65494;42.818;0.404;2023-12-04T13:54:10;1.55;;;0.30;;
55813;SDS011;65494;42.818;0.404;2023-12-04T13:56:48;0.30;;;0.30;;
55813;SDS011;65494;42.818;0.404;2023-12-04T13:59:22;0.28;;;0.28;;
55813;SDS011;65494;42.818;0.404;2023-12-04T14:01:49;0.30;;;0.30;;
55813;SDS011;65494;42.818;0.404;2023-12-04T14:04:16;0.55;;;0.38;;
55813;SDS011;65494;42.818;0.404;2023-12-04T14:06:42;0.20;;;0.20;;
55813;SDS011;65494;42.818;0.404;2023-12-04T14:09:08;0.20;;;0.20;;
55813;SDS011;65494;42.818;0.404;2023-12-04T14:11:41;2.13;;;0.50;;
55813;SDS011;65494;42.818;0.404;2023-12-04T14:14:17;0.65;;;0.40;;
55813;SDS011;65494;42.818;0.404;2023-12-04T14:16:43;1.58;;;0.60;;
55813;SDS011;65494;42.818;0.404;2023-12-04T14:19:11;0.63;;;0.60;;
55813;SDS011;65494;42.818;0.404;2023-12-04T14:21:50;0.40;;;0.32;;
55813;SDS011;65494;42.818;0.404;2023-12-04T14:24:16;1.73;;;0.80;;
55813;SDS011;65494;42.818;0.404;2023-12-04T14:26:43;4.43;;;1.38;;
55813;SDS011;65494;42.818;0.404;2023-12-04T14:29:09;6.10;;;2.45;;
55813;SDS011;65494;42.818;0.404;2023-12-04T14:31:35;6.82;;;2.47;;
55813;SDS011;65494;42.818;0.404;2023-12-04T14:34:01;4.10;;;2.08;;
55813;SDS011;65494;42.818;0.404;2023-12-04T14:36:37;4.40;;;1.70;;
55813;SDS011;65494;42.818;0.404;2023-12-04T14:39:04;2.80;;;1.15;;
55813;SDS011;65494;42.818;0.404;2023-12-04T14:41:30;2.13;;;1.30;;
55813;SDS011;65494;42.818;0.404;2023-12-04T14:43:57;1.20;;;0.57;;
55813;SDS011;65494;42.818;0.404;2023-12-04T14:46:31;1.70;;;0.65;;
55813;SDS011;65494;42.818;0.404;2023-12-04T14:52:34;1.55;;;0.63;;
55813;SDS011;65494;42.818;0.404;2023-12-04T14:55:15;0.98;;;0.40;;
55813;SDS011;65494;42.818;0.404;2023-12-04T14:57:47;0.50;;;0.40;;
55813;SDS011;65494;42.818;0.404;2023-12-04T15:00:28;2.17;;;1.05;;
55813;SDS011;65494;42.818;0.404;2023-12-04T15:02:57;0.90;;;0.60;;
55813;SDS011;65494;42.818;0.404;2023-12-04T15:05:26;4.13;;;0.68;;
55813;SDS011;65494;42.818;0.404;2023-12-04T15:08:11;0.80;;;0.60;;
55813;SDS011;65494;42.818;0.404;2023-12-04T15:10:53;1.15;;;0.50;;
55813;SDS011;65494;42.818;0.404;2023-12-04T15:14:01;0.50;;;0.43;;
55813;SDS011;65494;42.818;0.404;2023-12-04T15:17:06;0.30;;;0.30;;
55813;SDS011;65494;42.818;0.404;2023-12-04T15:20:23;0.20;;;0.20;;
55813;SDS011;65494;42.818;0.404;2023-12-04T15:22:55;0.20;;;0.20;;
55813;SDS011;65494;42.818;0.404;2023-12-04T15:25:41;0.30;;;0.30;;
55813;SDS011;65494;42.818;0.404;2023-12-04T15:28:07;0.35;;;0.30;;
55813;SDS011;65494;42.818;0.404;2023-12-04T15:34:24;3.80;;;0.40;;
55813;SDS011;65494;42.818;0.404;2023-12-04T15:37:25;0.40;;;0.40;;
55813;SDS011;65494;42.818;0.404;2023-12-04T15:40:30;3.75;;;0.43;;
55813;SDS011;65494;42.818;0.404;2023-12-04T15:43:06;0.20;;;0.20;;
55813;SDS011;65494;42.818;0.404;2023-12-04T15:46:28;0.30;;;0.30;;
55813;SDS011;65494;42.818;0.404;2023-12-04T15:49:15;0.63;;;0.30;;
55813;SDS011;65494;42.818;0.404;2023-12-04T15:51:41;0.35;;;0.35;;
55813;SDS011;65494;42.818;0.404;2023-12-04T15:54:07;0.68;;;0.60;;
55813;SDS011;65494;42.818;0.404;2023-12-04T15:56:33;2.83;;;0.68;;
55813;SDS011;65494;42.818;0.404;2023-12-04T15:58:59;0.40;;;0.40;;
55813;SDS011;65494;42.818;0.404;2023-12-04T16:01:25;0.45;;;0.30;;
55813;SDS011;65494;42.818;0.404;2023-12-04T16:03:52;0.30;;;0.30;;
55813;SDS011;65494;42.818;0.404;2023-12-04T16:06:18;2.40;;;0.40;;
55813;SDS011;65494;42.818;0.404;2023-12-04T16:08:44;0.30;;;0.30;;
55813;SDS011;65494;42.818;0.404;2023-12-04T16:11:10;0.65;;;0.65;;
55813;SDS011;65494;42.818;0.404;2023-12-04T16:13:37;3.05;;;0.70;;
55813;SDS011;65494;42.818;0.404;2023-12-04T16:16:04;0.30;;;0.30;;
55813;SDS011;65494;42.818;0.404;2023-12-04T16:18:30;0.88;;;0.50;;
55813;SDS011;65494;42.818;0.404;2023-12-04T16:20:56;1.20;;;0.50;;
55813;SDS011;65494;42.818;0.404;2023-12-04T16:23:24;3.70;;;0.40;;
55813;SDS011;65494;42.818;0.404;2023-12-04T16:25:50;1.58;;;0.40;;
55813;SDS011;65494;42.818;0.404;2023-12-04T16:28:17;0.88;;;0.50;;
55813;SDS011;65494;42.818;0.404;2023-12-04T16:30:43;0.63;;;0.57;;
55813;SDS011;65494;42.818;0.404;2023-12-04T16:33:10;0.40;;;0.40;;
55813;SDS011;65494;42.818;0.404;2023-12-04T16:35:36;0.52;;;0.40;;
55813;SDS011;65494;42.818;0.404;2023-12-04T16:38:02;0.45;;;0.45;;
55813;SDS011;65494;42.818;0.404;2023-12-04T16:40:28;7.80;;;2.70;;
55813;SDS011;65494;42.818;0.404;2023-12-04T16:42:55;13.38;;;5.70;;
55813;SDS011;65494;42.818;0.404;2023-12-04T16:45:21;11.45;;;5.20;;
55813;SDS011;65494;42.818;0.404;2023-12-04T16:47:47;9.77;;;3.28;;
55813;SDS011;65494;42.818;0.404;2023-12-04T16:50:14;12.20;;;4.40;;
55813;SDS011;65494;42.818;0.404;2023-12-04T16:56:10;12.38;;;4.95;;
55813;SDS011;65494;42.818;0.404;2023-12-04T16:59:31;12.65;;;4.88;;
55813;SDS011;65494;42.818;0.404;2023-12-04T17:02:09;9.25;;;4.68;;
55813;SDS011;65494;42.818;0.404;2023-12-04T17:04:42;15.48;;;7.40;;
55813;SDS011;65494;42.818;0.404;2023-12-04T17:11:19;18.48;;;10.30;;
55813;SDS011;65494;42.818;0.404;2023-12-04T17:14:20;18.25;;;10.05;;
55813;SDS011;65494;42.818;0.404;2023-12-04T17:16:56;12.63;;;5.75;;
55813;SDS011;65494;42.818;0.404;2023-12-04T17:19:57;6.15;;;2.67;;
55813;SDS011;65494;42.818;0.404;2023-12-04T17:23:03;5.18;;;2.53;;
55813;SDS011;65494;42.818;0.404;2023-12-04T17:28:20;1.02;;;0.70;;
55813;SDS011;65494;42.818;0.404;2023-12-04T17:34:09;5.68;;;2.00;;
55813;SDS011;65494;42.818;0.404;2023-12-04T17:40:18;4.38;;;1.60;;
55813;SDS011;65494;42.818;0.404;2023-12-04T17:46:32;3.15;;;1.70;;
55813;SDS011;65494;42.818;0.404;2023-12-04T17:52:32;0.85;;;0.50;;
55813;SDS011;65494;42.818;0.404;2023-12-04T17:58:40;0.40;;;0.40;;
55813;SDS011;65494;42.818;0.404;2023-12-04T18:01:10;13.38;;;5.13;;
55813;SDS011;65494;42.818;0.404;2023-12-04T18:04:06;1.52;;;0.52;;
55813;SDS011;65494;42.818;0.404;2023-12-04T18:06:52;1.95;;;0.57;;
55813;SDS011;65494;42.818;0.404;2023-12-04T18:15:07;1.13;;;0.90;;
55813;SDS011;65494;42.818;0.404;2023-12-04T18:18:10;9.70;;;4.25;;
55813;SDS011;65494;42.818;0.404;2023-12-04T18:24:01;1.40;;;1.10;;
55813;SDS011;65494;42.818;0.404;2023-12-04T18:26:52;3.80;;;1.40;;
55813;SDS011;65494;42.818;0.404;2023-12-04T18:29:50;1.30;;;1.00;;
55813;SDS011;65494;42.818;0.404;2023-12-04T18:32:16;2.55;;;1.40;;
55813;SDS011;65494;42.818;0.404;2023-12-04T18:34:44;8.93;;;2.95;;
55813;SDS011;65494;42.818;0.404;2023-12-04T18:37:11;6.53;;;3.50;;
55813;SDS011;65494;42.818;0.404;2023-12-04T18:39:42;7.88;;;4.03;;
55813;SDS011;65494;42.818;0.404;2023-12-04T18:42:08;4.22;;;1.00;;
55813;SDS011;65494;42.818;0.404;2023-12-04T18:44:47;7.28;;;3.03;;
55813;SDS011;65494;42.818;0.404;2023-12-04T18:47:43;6.32;;;2.38;;
55813;SDS011;65494;42.818;0.404;2023-12-04T18:50:45;4.22;;;1.88;;
55813;SDS011;65494;42.818;0.404;2023-12-04T18:56:20;18.65;;;8.93;;
55813;SDS011;65494;42.818;0.404;2023-12-04T18:58:46;3.17;;;1.00;;
55813;SDS011;65494;42.818;0.404;2023-12-04T19:01:17;1.40;;;0.95;;
55813;SDS011;65494;42.818;0.404;2023-12-04T19:03:43;2.10;;;1.30;;
55813;SDS011;65494;42.818;0.404;2023-12-04T19:06:09;3.15;;;1.58;;
55813;SDS011;65494;42.818;0.404;2023-12-04T19:08:36;10.98;;;3.95;;
55813;SDS011;65494;42.818;0.404;2023-12-04T19:11:02;4.57;;;2.05;;
55813;SDS011;65494;42.818;0.404;2023-12-04T19:13:43;8.23;;;3.35;;
55813;SDS011;65494;42.818;0.404;2023-12-04T19:22:21;1.42;;;0.57;;
55813;SDS011;65494;42.818;0.404;2023-12-04T19:28:04;5.25;;;2.83;;
55813;SDS011;65494;42.818;0.404;2023-12-04T19:33:46;11.15;;;4.80;;
55813;SDS011;65494;42.818;0.404;2023-12-04T19:36:40;14.98;;;4.22;;
55813;SDS011;65494;42.818;0.404;2023-12-04T19:39:07;11.23;;;4.70;;
55813;SDS011;65494;42.818;0.404;2023-12-04T20:00:48;7.80;;;3.75;;
55813;SDS011;65494;42.818;0.404;2023-12-04T20:06:45;6.63;;;3.40;;
55813;SDS011;65494;42.818;0.404;2023-12-04T20:09:49;7.57;;;3.60;;
55813;SDS011;65494;42.818;0.404;2023-12-04T20:19:22;10.48;;;4.10;;
55813;SDS011;65494;42.818;0.404;2023-12-04T20:22:32;12.18;;;7.10;;
55813;SDS011;65494;42.818;0.404;2023-12-04T21:16:56;17.42;;;8.57;;
55813;SDS011;65494;42.818;0.404;2023-12-04T21:19:31;10.70;;;4.95;;
55813;SDS011;65494;42.818;0.404;2023-12-04T21:30:28;10.13;;;4.75;;
55813;SDS011;65494;42.818;0.404;2023-12-04T21:33:46;12.07;;;5.32;;
55813;SDS011;65494;42.818;0.404;2023-12-04T21:56:47;2.92;;;1.48;;
